sensor_id;sensor_type;location;lat;lon;timestamp;P1;durP1;ratioP1;P2;durP2;ratioP2
34144;SDS011;20422;53.014;8.886;2022-08-19T00:00:27;9.45;;;6.35;;
34144;SDS011;20422;53.014;8.886;2022-08-19T00:02:53;12.32;;;6.75;;
34144;SDS011;20422;53.014;8.886;2022-08-19T00:05:20;10.50;;;6.70;;
34144;SDS011;20422;53.014;8.886;2022-08-19T00:07:48;11.07;;;6.13;;
34144;SDS011;20422;53.014;8.886;2022-08-19T00:10:14;13.50;;;6.30;;
34144;SDS011;20422;53.014;8.886;2022-08-19T00:12:42;7.28;;;6.40;;
34144;SDS011;20422;53.014;8.886;2022-08-19T00:15:10;14.63;;;6.45;;
34144;SDS011;20422;53.014;8.886;2022-08-19T00:20:06;9.77;;;6.20;;
34144;SDS011;20422;53.014;8.886;2022-08-19T00:22:32;9.85;;;6.10;;
34144;SDS011;20422;53.014;8.886;2022-08-19T00:24:59;12.25;;;7.05;;
34144;SDS011;20422;53.014;8.886;2022-08-19T00:27:25;13.30;;;8.43;;
34144;SDS011;20422;53.014;8.886;2022-08-19T00:29:52;12.00;;;8.63;;
34144;SDS011;20422;53.014;8.886;2022-08-19T00:32:19;14.07;;;9.15;;
34144;SDS011;20422;53.014;8.886;2022-08-19T00:34:46;19.05;;;8.13;;
34144;SDS011;20422;53.014;8.886;2022-08-19T00:37:12;9.65;;;7.90;;
34144;SDS011;20422;53.014;8.886;2022-08-19T00:39:38;13.88;;;9.30;;
34144;SDS011;20422;53.014;8.886;2022-08-19T00:42:05;14.75;;;9.63;;
34144;SDS011;20422;53.014;8.886;2022-08-19T00:44:31;13.05;;;8.65;;
34144;SDS011;20422;53.014;8.886;2022-08-19T00:46:58;16.67;;;9.75;;
34144;SDS011;20422;53.014;8.886;2022-08-19T00:49:47;13.23;;;9.82;;
34144;SDS011;20422;53.014;8.886;2022-08-19T00:52:23;16.77;;;11.38;;
34144;SDS011;20422;53.014;8.886;2022-08-19T00:54:53;15.48;;;11.18;;
34144;SDS011;20422;53.014;8.886;2022-08-19T00:57:22;15.50;;;10.73;;
34144;SDS011;20422;53.014;8.886;2022-08-19T00:59:54;20.98;;;11.63;;
34144;SDS011;20422;53.014;8.886;2022-08-19T01:02:22;14.55;;;11.25;;
34144;SDS011;20422;53.014;8.886;2022-08-19T01:04:49;20.13;;;12.07;;
34144;SDS011;20422;53.014;8.886;2022-08-19T01:07:15;20.42;;;12.65;;
34144;SDS011;20422;53.014;8.886;2022-08-19T01:09:41;20.27;;;13.27;;
34144;SDS011;20422;53.014;8.886;2022-08-19T01:12:08;20.63;;;13.32;;
34144;SDS011;20422;53.014;8.886;2022-08-19T01:14:35;22.88;;;13.20;;
34144;SDS011;20422;53.014;8.886;2022-08-19T01:19:33;25.17;;;16.00;;
34144;SDS011;20422;53.014;8.886;2022-08-19T01:22:04;30.08;;;14.07;;
34144;SDS011;20422;53.014;8.886;2022-08-19T01:24:37;27.00;;;14.23;;
34144;SDS011;20422;53.014;8.886;2022-08-19T01:27:06;22.92;;;14.48;;
34144;SDS011;20422;53.014;8.886;2022-08-19T01:29:32;22.13;;;13.82;;
34144;SDS011;20422;53.014;8.886;2022-08-19T01:32:01;21.75;;;13.45;;
34144;SDS011;20422;53.014;8.886;2022-08-19T01:34:26;24.70;;;14.65;;
34144;SDS011;20422;53.014;8.886;2022-08-19T01:36:53;25.63;;;15.10;;
34144;SDS011;20422;53.014;8.886;2022-08-19T01:39:20;24.40;;;15.93;;
34144;SDS011;20422;53.014;8.886;2022-08-19T01:44:17;25.00;;;15.63;;
34144;SDS011;20422;53.014;8.886;2022-08-19T01:46:47;20.58;;;13.40;;
34144;SDS011;20422;53.014;8.886;2022-08-19T01:49:14;20.15;;;13.57;;
34144;SDS011;20422;53.014;8.886;2022-08-19T01:51:41;21.58;;;13.45;;
34144;SDS011;20422;53.014;8.886;2022-08-19T01:54:08;24.60;;;13.35;;
34144;SDS011;20422;53.014;8.886;2022-08-19T01:56:34;22.58;;;13.18;;
34144;SDS011;20422;53.014;8.886;2022-08-19T01:59:03;22.20;;;13.25;;
34144;SDS011;20422;53.014;8.886;2022-08-19T02:01:34;19.35;;;11.70;;
34144;SDS011;20422;53.014;8.886;2022-08-19T02:04:01;19.38;;;11.88;;
34144;SDS011;20422;53.014;8.886;2022-08-19T02:06:27;19.48;;;11.90;;
34144;SDS011;20422;53.014;8.886;2022-08-19T02:08:53;23.20;;;12.57;;
34144;SDS011;20422;53.014;8.886;2022-08-19T02:11:21;20.40;;;11.73;;
34144;SDS011;20422;53.014;8.886;2022-08-19T02:14:03;19.90;;;11.52;;
34144;SDS011;20422;53.014;8.886;2022-08-19T02:16:32;21.38;;;11.85;;
34144;SDS011;20422;53.014;8.886;2022-08-19T02:18:59;18.58;;;11.23;;
34144;SDS011;20422;53.014;8.886;2022-08-19T02:23:56;11.88;;;8.73;;
34144;SDS011;20422;53.014;8.886;2022-08-19T02:26:23;14.30;;;9.55;;
34144;SDS011;20422;53.014;8.886;2022-08-19T02:28:51;14.85;;;10.63;;
34144;SDS011;20422;53.014;8.886;2022-08-19T02:31:18;18.67;;;10.85;;
34144;SDS011;20422;53.014;8.886;2022-08-19T02:33:47;17.77;;;9.95;;
34144;SDS011;20422;53.014;8.886;2022-08-19T02:36:13;18.80;;;11.40;;
34144;SDS011;20422;53.014;8.886;2022-08-19T02:38:42;16.60;;;10.05;;
34144;SDS011;20422;53.014;8.886;2022-08-19T02:41:13;15.18;;;10.55;;
34144;SDS011;20422;53.014;8.886;2022-08-19T02:43:42;14.02;;;10.82;;
34144;SDS011;20422;53.014;8.886;2022-08-19T02:46:18;20.80;;;13.00;;
34144;SDS011;20422;53.014;8.886;2022-08-19T02:48:48;20.58;;;12.13;;
34144;SDS011;20422;53.014;8.886;2022-08-19T02:51:21;15.82;;;10.45;;
34144;SDS011;20422;53.014;8.886;2022-08-19T02:53:49;17.25;;;10.68;;
34144;SDS011;20422;53.014;8.886;2022-08-19T02:56:15;16.75;;;10.82;;
34144;SDS011;20422;53.014;8.886;2022-08-19T02:58:41;17.00;;;11.02;;
34144;SDS011;20422;53.014;8.886;2022-08-19T03:01:08;14.15;;;11.30;;
34144;SDS011;20422;53.014;8.886;2022-08-19T03:03:37;19.73;;;12.27;;
34144;SDS011;20422;53.014;8.886;2022-08-19T03:06:08;16.10;;;11.93;;
34144;SDS011;20422;53.014;8.886;2022-08-19T03:08:40;19.98;;;13.35;;
34144;SDS011;20422;53.014;8.886;2022-08-19T03:11:11;18.73;;;11.00;;
34144;SDS011;20422;53.014;8.886;2022-08-19T03:13:46;14.30;;;10.60;;
34144;SDS011;20422;53.014;8.886;2022-08-19T03:16:13;17.52;;;11.70;;
34144;SDS011;20422;53.014;8.886;2022-08-19T03:18:41;18.15;;;12.35;;
34144;SDS011;20422;53.014;8.886;2022-08-19T03:21:07;23.23;;;13.00;;
34144;SDS011;20422;53.014;8.886;2022-08-19T03:23:34;19.15;;;13.98;;
34144;SDS011;20422;53.014;8.886;2022-08-19T03:26:03;17.83;;;13.20;;
34144;SDS011;20422;53.014;8.886;2022-08-19T03:28:31;21.70;;;13.95;;
34144;SDS011;20422;53.014;8.886;2022-08-19T03:31:01;22.05;;;14.60;;
34144;SDS011;20422;53.014;8.886;2022-08-19T03:33:31;20.38;;;13.45;;
34144;SDS011;20422;53.014;8.886;2022-08-19T03:38:35;20.52;;;14.38;;
34144;SDS011;20422;53.014;8.886;2022-08-19T03:41:04;21.15;;;14.60;;
34144;SDS011;20422;53.014;8.886;2022-08-19T03:43:33;22.83;;;14.32;;
34144;SDS011;20422;53.014;8.886;2022-08-19T03:46:02;20.38;;;14.90;;
34144;SDS011;20422;53.014;8.886;2022-08-19T03:48:34;24.13;;;13.57;;
34144;SDS011;20422;53.014;8.886;2022-08-19T03:51:02;24.58;;;16.00;;
34144;SDS011;20422;53.014;8.886;2022-08-19T03:53:29;22.40;;;16.42;;
34144;SDS011;20422;53.014;8.886;2022-08-19T03:55:57;26.60;;;15.50;;
34144;SDS011;20422;53.014;8.886;2022-08-19T03:58:28;23.10;;;16.38;;
34144;SDS011;20422;53.014;8.886;2022-08-19T04:00:56;27.40;;;17.48;;
34144;SDS011;20422;53.014;8.886;2022-08-19T04:03:23;31.25;;;19.00;;
34144;SDS011;20422;53.014;8.886;2022-08-19T04:05:51;30.73;;;19.33;;
34144;SDS011;20422;53.014;8.886;2022-08-19T04:08:19;26.13;;;19.10;;
34144;SDS011;20422;53.014;8.886;2022-08-19T04:10:48;25.23;;;17.75;;
34144;SDS011;20422;53.014;8.886;2022-08-19T04:13:16;28.50;;;18.75;;
34144;SDS011;20422;53.014;8.886;2022-08-19T04:15:44;28.08;;;17.88;;
34144;SDS011;20422;53.014;8.886;2022-08-19T04:18:13;32.97;;;19.07;;
34144;SDS011;20422;53.014;8.886;2022-08-19T04:20:42;30.42;;;19.67;;
34144;SDS011;20422;53.014;8.886;2022-08-19T04:23:11;28.00;;;19.58;;
34144;SDS011;20422;53.014;8.886;2022-08-19T04:25:40;33.17;;;19.90;;
34144;SDS011;20422;53.014;8.886;2022-08-19T04:28:09;33.30;;;20.45;;
34144;SDS011;20422;53.014;8.886;2022-08-19T04:30:43;35.88;;;20.40;;
34144;SDS011;20422;53.014;8.886;2022-08-19T04:33:16;29.63;;;18.58;;
34144;SDS011;20422;53.014;8.886;2022-08-19T04:35:46;29.58;;;18.63;;
34144;SDS011;20422;53.014;8.886;2022-08-19T04:38:15;35.15;;;20.40;;
34144;SDS011;20422;53.014;8.886;2022-08-19T04:40:43;24.52;;;17.85;;
34144;SDS011;20422;53.014;8.886;2022-08-19T04:43:30;31.58;;;17.98;;
34144;SDS011;20422;53.014;8.886;2022-08-19T04:45:58;25.40;;;18.40;;
34144;SDS011;20422;53.014;8.886;2022-08-19T04:48:30;27.50;;;19.15;;
34144;SDS011;20422;53.014;8.886;2022-08-19T04:50:57;26.90;;;18.85;;
34144;SDS011;20422;53.014;8.886;2022-08-19T04:53:26;27.42;;;18.50;;
34144;SDS011;20422;53.014;8.886;2022-08-19T04:55:57;29.10;;;18.33;;
34144;SDS011;20422;53.014;8.886;2022-08-19T04:58:26;26.48;;;17.30;;
34144;SDS011;20422;53.014;8.886;2022-08-19T05:00:53;26.45;;;18.33;;
34144;SDS011;20422;53.014;8.886;2022-08-19T05:03:20;27.20;;;18.10;;
34144;SDS011;20422;53.014;8.886;2022-08-19T05:05:47;32.40;;;18.20;;
34144;SDS011;20422;53.014;8.886;2022-08-19T05:08:16;26.90;;;19.70;;
34144;SDS011;20422;53.014;8.886;2022-08-19T05:10:44;24.67;;;17.48;;
34144;SDS011;20422;53.014;8.886;2022-08-19T05:13:11;27.63;;;18.10;;
34144;SDS011;20422;53.014;8.886;2022-08-19T05:15:39;36.17;;;18.30;;
34144;SDS011;20422;53.014;8.886;2022-08-19T05:18:04;27.02;;;18.17;;
34144;SDS011;20422;53.014;8.886;2022-08-19T05:20:49;29.38;;;17.95;;
34144;SDS011;20422;53.014;8.886;2022-08-19T05:23:33;24.60;;;16.92;;
34144;SDS011;20422;53.014;8.886;2022-08-19T05:26:00;28.50;;;17.65;;
34144;SDS011;20422;53.014;8.886;2022-08-19T05:28:25;27.70;;;17.42;;
34144;SDS011;20422;53.014;8.886;2022-08-19T05:30:53;26.98;;;16.48;;
34144;SDS011;20422;53.014;8.886;2022-08-19T05:33:22;23.70;;;16.67;;
34144;SDS011;20422;53.014;8.886;2022-08-19T05:35:49;22.80;;;16.38;;
34144;SDS011;20422;53.014;8.886;2022-08-19T05:38:16;26.83;;;16.70;;
34144;SDS011;20422;53.014;8.886;2022-08-19T05:40:42;28.13;;;16.00;;
34144;SDS011;20422;53.014;8.886;2022-08-19T05:43:13;24.10;;;16.83;;
34144;SDS011;20422;53.014;8.886;2022-08-19T05:45:42;21.77;;;15.52;;
34144;SDS011;20422;53.014;8.886;2022-08-19T05:48:10;26.83;;;15.75;;
34144;SDS011;20422;53.014;8.886;2022-08-19T05:50:38;25.08;;;15.52;;
34144;SDS011;20422;53.014;8.886;2022-08-19T05:53:07;27.10;;;15.63;;
34144;SDS011;20422;53.014;8.886;2022-08-19T05:55:34;24.85;;;16.25;;
34144;SDS011;20422;53.014;8.886;2022-08-19T05:58:04;23.48;;;15.60;;
34144;SDS011;20422;53.014;8.886;2022-08-19T06:00:33;22.92;;;13.75;;
34144;SDS011;20422;53.014;8.886;2022-08-19T06:03:02;18.15;;;13.27;;
34144;SDS011;20422;53.014;8.886;2022-08-19T06:05:30;14.68;;;11.77;;
34144;SDS011;20422;53.014;8.886;2022-08-19T06:07:57;22.58;;;13.27;;
34144;SDS011;20422;53.014;8.886;2022-08-19T06:10:24;21.58;;;12.57;;
34144;SDS011;20422;53.014;8.886;2022-08-19T06:12:52;17.08;;;12.30;;
34144;SDS011;20422;53.014;8.886;2022-08-19T06:15:18;17.27;;;12.18;;
34144;SDS011;20422;53.014;8.886;2022-08-19T06:17:45;17.60;;;13.07;;
34144;SDS011;20422;53.014;8.886;2022-08-19T06:20:12;20.55;;;13.02;;
34144;SDS011;20422;53.014;8.886;2022-08-19T06:22:41;20.77;;;12.07;;
34144;SDS011;20422;53.014;8.886;2022-08-19T06:25:12;21.52;;;12.10;;
34144;SDS011;20422;53.014;8.886;2022-08-19T06:27:40;20.98;;;11.95;;
34144;SDS011;20422;53.014;8.886;2022-08-19T06:30:07;19.92;;;13.27;;
34144;SDS011;20422;53.014;8.886;2022-08-19T06:32:34;19.08;;;12.65;;
34144;SDS011;20422;53.014;8.886;2022-08-19T06:35:01;20.55;;;11.85;;
34144;SDS011;20422;53.014;8.886;2022-08-19T06:37:27;20.35;;;12.02;;
34144;SDS011;20422;53.014;8.886;2022-08-19T06:39:53;18.40;;;11.30;;
34144;SDS011;20422;53.014;8.886;2022-08-19T06:42:18;19.73;;;12.95;;
34144;SDS011;20422;53.014;8.886;2022-08-19T06:44:44;21.70;;;12.82;;
34144;SDS011;20422;53.014;8.886;2022-08-19T06:47:14;23.35;;;13.07;;
34144;SDS011;20422;53.014;8.886;2022-08-19T06:49:45;20.33;;;13.13;;
34144;SDS011;20422;53.014;8.886;2022-08-19T06:52:12;16.85;;;12.25;;
34144;SDS011;20422;53.014;8.886;2022-08-19T06:54:40;18.35;;;12.10;;
34144;SDS011;20422;53.014;8.886;2022-08-19T06:57:08;20.90;;;11.15;;
34144;SDS011;20422;53.014;8.886;2022-08-19T06:59:38;15.35;;;9.98;;
34144;SDS011;20422;53.014;8.886;2022-08-19T07:02:04;19.92;;;10.52;;
34144;SDS011;20422;53.014;8.886;2022-08-19T07:04:32;19.08;;;9.77;;
34144;SDS011;20422;53.014;8.886;2022-08-19T07:07:05;15.43;;;9.80;;
34144;SDS011;20422;53.014;8.886;2022-08-19T07:09:36;17.58;;;8.40;;
34144;SDS011;20422;53.014;8.886;2022-08-19T07:12:06;18.20;;;8.98;;
34144;SDS011;20422;53.014;8.886;2022-08-19T07:14:35;14.60;;;8.77;;
34144;SDS011;20422;53.014;8.886;2022-08-19T07:17:07;13.47;;;8.17;;
34144;SDS011;20422;53.014;8.886;2022-08-19T07:19:36;20.58;;;9.77;;
34144;SDS011;20422;53.014;8.886;2022-08-19T07:22:05;13.38;;;8.23;;
34144;SDS011;20422;53.014;8.886;2022-08-19T07:24:32;13.73;;;8.55;;
34144;SDS011;20422;53.014;8.886;2022-08-19T07:27:00;13.15;;;8.30;;
34144;SDS011;20422;53.014;8.886;2022-08-19T07:29:29;11.70;;;7.57;;
34144;SDS011;20422;53.014;8.886;2022-08-19T07:31:59;16.67;;;8.48;;
34144;SDS011;20422;53.014;8.886;2022-08-19T07:34:28;20.35;;;8.75;;
34144;SDS011;20422;53.014;8.886;2022-08-19T07:36:55;12.30;;;9.25;;
34144;SDS011;20422;53.014;8.886;2022-08-19T07:39:24;15.60;;;9.15;;
34144;SDS011;20422;53.014;8.886;2022-08-19T07:41:53;16.65;;;10.02;;
34144;SDS011;20422;53.014;8.886;2022-08-19T07:44:21;20.45;;;10.23;;
34144;SDS011;20422;53.014;8.886;2022-08-19T07:46:49;17.13;;;9.68;;
34144;SDS011;20422;53.014;8.886;2022-08-19T07:49:18;14.57;;;8.95;;
34144;SDS011;20422;53.014;8.886;2022-08-19T07:51:52;13.43;;;6.43;;
34144;SDS011;20422;53.014;8.886;2022-08-19T07:54:21;10.15;;;5.00;;
34144;SDS011;20422;53.014;8.886;2022-08-19T07:56:49;8.35;;;5.05;;
34144;SDS011;20422;53.014;8.886;2022-08-19T07:59:15;5.20;;;4.20;;
34144;SDS011;20422;53.014;8.886;2022-08-19T08:01:43;7.18;;;3.75;;
34144;SDS011;20422;53.014;8.886;2022-08-19T08:04:09;4.40;;;3.08;;
34144;SDS011;20422;53.014;8.886;2022-08-19T08:06:55;4.38;;;3.10;;
34144;SDS011;20422;53.014;8.886;2022-08-19T08:09:41;4.65;;;3.00;;
34144;SDS011;20422;53.014;8.886;2022-08-19T08:12:17;2.92;;;2.45;;
34144;SDS011;20422;53.014;8.886;2022-08-19T08:14:55;7.07;;;3.03;;
34144;SDS011;20422;53.014;8.886;2022-08-19T08:17:24;4.22;;;3.67;;
34144;SDS011;20422;53.014;8.886;2022-08-19T08:19:53;6.20;;;4.43;;
34144;SDS011;20422;53.014;8.886;2022-08-19T08:22:21;8.10;;;3.25;;
34144;SDS011;20422;53.014;8.886;2022-08-19T08:25:12;3.83;;;3.30;;
34144;SDS011;20422;53.014;8.886;2022-08-19T08:27:40;4.78;;;3.17;;
34144;SDS011;20422;53.014;8.886;2022-08-19T08:30:09;4.55;;;2.50;;
34144;SDS011;20422;53.014;8.886;2022-08-19T08:32:38;6.88;;;2.72;;
34144;SDS011;20422;53.014;8.886;2022-08-19T08:35:06;6.80;;;2.53;;
34144;SDS011;20422;53.014;8.886;2022-08-19T08:37:35;5.97;;;2.60;;
34144;SDS011;20422;53.014;8.886;2022-08-19T08:43:09;5.20;;;2.63;;
34144;SDS011;20422;53.014;8.886;2022-08-19T08:45:59;4.15;;;3.00;;
34144;SDS011;20422;53.014;8.886;2022-08-19T08:48:47;5.00;;;2.78;;
34144;SDS011;20422;53.014;8.886;2022-08-19T08:51:24;6.57;;;3.05;;
34144;SDS011;20422;53.014;8.886;2022-08-19T08:53:55;5.25;;;2.42;;
34144;SDS011;20422;53.014;8.886;2022-08-19T08:56:22;4.03;;;2.78;;
34144;SDS011;20422;53.014;8.886;2022-08-19T09:01:26;7.07;;;2.60;;
34144;SDS011;20422;53.014;8.886;2022-08-19T09:03:53;5.00;;;2.28;;
34144;SDS011;20422;53.014;8.886;2022-08-19T09:09:18;2.72;;;2.50;;
34144;SDS011;20422;53.014;8.886;2022-08-19T09:17:06;4.78;;;2.80;;
34144;SDS011;20422;53.014;8.886;2022-08-19T09:19:46;4.70;;;2.88;;
34144;SDS011;20422;53.014;8.886;2022-08-19T09:22:16;4.03;;;2.88;;
34144;SDS011;20422;53.014;8.886;2022-08-19T09:24:41;5.38;;;4.47;;
34144;SDS011;20422;53.014;8.886;2022-08-19T09:27:08;4.70;;;2.90;;
34144;SDS011;20422;53.014;8.886;2022-08-19T09:29:34;10.40;;;3.05;;
34144;SDS011;20422;53.014;8.886;2022-08-19T09:32:01;4.78;;;2.60;;
34144;SDS011;20422;53.014;8.886;2022-08-19T09:34:28;4.05;;;2.38;;
34144;SDS011;20422;53.014;8.886;2022-08-19T09:36:55;4.72;;;2.50;;
34144;SDS011;20422;53.014;8.886;2022-08-19T09:41:52;4.28;;;2.38;;
34144;SDS011;20422;53.014;8.886;2022-08-19T09:44:19;3.03;;;2.17;;
34144;SDS011;20422;53.014;8.886;2022-08-19T09:46:47;3.28;;;2.22;;
34144;SDS011;20422;53.014;8.886;2022-08-19T09:49:14;3.20;;;2.28;;
34144;SDS011;20422;53.014;8.886;2022-08-19T09:51:41;3.35;;;2.35;;
34144;SDS011;20422;53.014;8.886;2022-08-19T09:54:08;7.03;;;2.78;;
34144;SDS011;20422;53.014;8.886;2022-08-19T09:56:33;10.98;;;2.67;;
34144;SDS011;20422;53.014;8.886;2022-08-19T09:58:59;4.25;;;2.78;;
34144;SDS011;20422;53.014;8.886;2022-08-19T10:01:27;5.97;;;2.92;;
34144;SDS011;20422;53.014;8.886;2022-08-19T10:03:56;5.25;;;2.20;;
34144;SDS011;20422;53.014;8.886;2022-08-19T10:06:25;7.03;;;2.85;;
34144;SDS011;20422;53.014;8.886;2022-08-19T10:08:55;3.00;;;2.70;;
34144;SDS011;20422;53.014;8.886;2022-08-19T10:11:22;6.53;;;3.00;;
34144;SDS011;20422;53.014;8.886;2022-08-19T10:13:48;3.33;;;2.00;;
34144;SDS011;20422;53.014;8.886;2022-08-19T10:16:16;6.30;;;2.13;;
34144;SDS011;20422;53.014;8.886;2022-08-19T10:18:45;4.75;;;2.20;;
34144;SDS011;20422;53.014;8.886;2022-08-19T10:21:24;4.38;;;2.10;;
34144;SDS011;20422;53.014;8.886;2022-08-19T10:23:54;3.65;;;2.03;;
34144;SDS011;20422;53.014;8.886;2022-08-19T10:26:26;7.65;;;2.20;;
34144;SDS011;20422;53.014;8.886;2022-08-19T10:28:55;6.85;;;2.20;;
34144;SDS011;20422;53.014;8.886;2022-08-19T10:31:24;5.03;;;2.00;;
34144;SDS011;20422;53.014;8.886;2022-08-19T10:33:52;4.95;;;1.88;;
34144;SDS011;20422;53.014;8.886;2022-08-19T10:36:25;6.03;;;2.50;;
34144;SDS011;20422;53.014;8.886;2022-08-19T10:38:58;4.35;;;2.20;;
34144;SDS011;20422;53.014;8.886;2022-08-19T10:41:31;3.70;;;1.75;;
34144;SDS011;20422;53.014;8.886;2022-08-19T10:44:00;4.70;;;1.40;;
34144;SDS011;20422;53.014;8.886;2022-08-19T10:48:53;3.15;;;1.50;;
34144;SDS011;20422;53.014;8.886;2022-08-19T10:51:21;11.90;;;2.95;;
34144;SDS011;20422;53.014;8.886;2022-08-19T10:54:06;4.38;;;1.60;;
34144;SDS011;20422;53.014;8.886;2022-08-19T10:56:33;7.57;;;1.30;;
34144;SDS011;20422;53.014;8.886;2022-08-19T10:59:18;3.33;;;1.58;;
34144;SDS011;20422;53.014;8.886;2022-08-19T11:01:47;6.47;;;1.38;;
34144;SDS011;20422;53.014;8.886;2022-08-19T11:04:14;5.95;;;1.38;;
34144;SDS011;20422;53.014;8.886;2022-08-19T11:06:44;3.42;;;1.40;;
34144;SDS011;20422;53.014;8.886;2022-08-19T11:09:14;10.68;;;2.63;;
34144;SDS011;20422;53.014;8.886;2022-08-19T11:11:42;2.55;;;1.20;;
34144;SDS011;20422;53.014;8.886;2022-08-19T11:14:08;8.48;;;1.90;;
34144;SDS011;20422;53.014;8.886;2022-08-19T11:16:36;6.65;;;1.52;;
34144;SDS011;20422;53.014;8.886;2022-08-19T11:19:05;4.35;;;1.40;;
34144;SDS011;20422;53.014;8.886;2022-08-19T11:21:35;5.50;;;1.70;;
34144;SDS011;20422;53.014;8.886;2022-08-19T11:24:06;7.20;;;1.80;;
34144;SDS011;20422;53.014;8.886;2022-08-19T11:26:34;6.28;;;1.50;;
34144;SDS011;20422;53.014;8.886;2022-08-19T11:29:03;3.25;;;1.35;;
34144;SDS011;20422;53.014;8.886;2022-08-19T11:31:33;10.95;;;1.48;;
34144;SDS011;20422;53.014;8.886;2022-08-19T11:36:28;3.42;;;1.50;;
34144;SDS011;20422;53.014;8.886;2022-08-19T11:38:54;3.67;;;1.33;;
34144;SDS011;20422;53.014;8.886;2022-08-19T11:41:20;7.03;;;1.73;;
34144;SDS011;20422;53.014;8.886;2022-08-19T11:43:48;5.67;;;1.70;;
34144;SDS011;20422;53.014;8.886;2022-08-19T11:46:15;2.17;;;1.50;;
34144;SDS011;20422;53.014;8.886;2022-08-19T11:48:42;2.35;;;1.63;;
34144;SDS011;20422;53.014;8.886;2022-08-19T11:51:11;8.65;;;1.50;;
34144;SDS011;20422;53.014;8.886;2022-08-19T11:53:39;5.35;;;1.70;;
34144;SDS011;20422;53.014;8.886;2022-08-19T11:56:07;4.88;;;1.42;;
34144;SDS011;20422;53.014;8.886;2022-08-19T11:58:35;7.07;;;1.38;;
34144;SDS011;20422;53.014;8.886;2022-08-19T12:01:04;2.22;;;1.17;;
34144;SDS011;20422;53.014;8.886;2022-08-19T12:03:32;3.40;;;1.30;;
34144;SDS011;20422;53.014;8.886;2022-08-19T12:06:03;5.45;;;1.33;;
34144;SDS011;20422;53.014;8.886;2022-08-19T12:08:31;9.20;;;1.20;;
34144;SDS011;20422;53.014;8.886;2022-08-19T12:10:57;6.10;;;1.27;;
34144;SDS011;20422;53.014;8.886;2022-08-19T12:13:23;7.90;;;0.98;;
34144;SDS011;20422;53.014;8.886;2022-08-19T12:15:50;12.88;;;1.70;;
34144;SDS011;20422;53.014;8.886;2022-08-19T12:18:17;6.72;;;1.52;;
34144;SDS011;20422;53.014;8.886;2022-08-19T12:20:43;2.03;;;1.42;;
34144;SDS011;20422;53.014;8.886;2022-08-19T12:23:10;3.58;;;1.45;;
34144;SDS011;20422;53.014;8.886;2022-08-19T12:25:37;3.13;;;0.90;;
34144;SDS011;20422;53.014;8.886;2022-08-19T12:28:16;3.72;;;1.17;;
34144;SDS011;20422;53.014;8.886;2022-08-19T12:30:43;1.67;;;0.98;;
34144;SDS011;20422;53.014;8.886;2022-08-19T12:33:10;5.95;;;1.58;;
34144;SDS011;20422;53.014;8.886;2022-08-19T12:35:39;5.70;;;1.20;;
34144;SDS011;20422;53.014;8.886;2022-08-19T12:38:11;7.10;;;1.10;;
34144;SDS011;20422;53.014;8.886;2022-08-19T12:40:39;1.38;;;0.80;;
34144;SDS011;20422;53.014;8.886;2022-08-19T12:43:06;2.97;;;0.82;;
34144;SDS011;20422;53.014;8.886;2022-08-19T12:45:34;3.63;;;1.20;;
34144;SDS011;20422;53.014;8.886;2022-08-19T12:48:00;2.05;;;1.00;;
34144;SDS011;20422;53.014;8.886;2022-08-19T12:50:25;3.42;;;1.05;;
34144;SDS011;20422;53.014;8.886;2022-08-19T12:52:52;1.67;;;0.95;;
34144;SDS011;20422;53.014;8.886;2022-08-19T12:55:18;1.63;;;1.08;;
34144;SDS011;20422;53.014;8.886;2022-08-19T12:57:45;3.25;;;1.20;;
34144;SDS011;20422;53.014;8.886;2022-08-19T13:00:12;2.58;;;1.48;;
34144;SDS011;20422;53.014;8.886;2022-08-19T13:02:41;1.48;;;1.00;;
34144;SDS011;20422;53.014;8.886;2022-08-19T13:05:13;2.47;;;1.00;;
34144;SDS011;20422;53.014;8.886;2022-08-19T13:07:41;3.08;;;0.95;;
34144;SDS011;20422;53.014;8.886;2022-08-19T13:10:10;1.95;;;1.00;;
34144;SDS011;20422;53.014;8.886;2022-08-19T13:12:38;2.45;;;1.00;;
34144;SDS011;20422;53.014;8.886;2022-08-19T13:15:05;4.32;;;1.00;;
34144;SDS011;20422;53.014;8.886;2022-08-19T13:17:30;3.13;;;0.98;;
34144;SDS011;20422;53.014;8.886;2022-08-19T13:19:59;7.00;;;1.75;;
34144;SDS011;20422;53.014;8.886;2022-08-19T13:22:25;1.60;;;0.88;;
34144;SDS011;20422;53.014;8.886;2022-08-19T13:24:51;2.60;;;1.13;;
34144;SDS011;20422;53.014;8.886;2022-08-19T13:27:18;3.65;;;1.17;;
34144;SDS011;20422;53.014;8.886;2022-08-19T13:29:44;1.88;;;1.15;;
34144;SDS011;20422;53.014;8.886;2022-08-19T13:32:29;3.17;;;0.93;;
34144;SDS011;20422;53.014;8.886;2022-08-19T13:35:15;5.75;;;1.20;;
34144;SDS011;20422;53.014;8.886;2022-08-19T13:37:43;4.50;;;1.15;;
34144;SDS011;20422;53.014;8.886;2022-08-19T13:42:46;1.75;;;0.95;;
34144;SDS011;20422;53.014;8.886;2022-08-19T13:45:15;4.00;;;0.70;;
34144;SDS011;20422;53.014;8.886;2022-08-19T13:47:46;2.40;;;0.68;;
34144;SDS011;20422;53.014;8.886;2022-08-19T13:50:15;1.88;;;0.70;;
34144;SDS011;20422;53.014;8.886;2022-08-19T13:52:43;2.13;;;1.07;;
34144;SDS011;20422;53.014;8.886;2022-08-19T13:55:10;2.75;;;0.70;;
34144;SDS011;20422;53.014;8.886;2022-08-19T13:57:38;0.85;;;0.55;;
34144;SDS011;20422;53.014;8.886;2022-08-19T14:00:06;2.47;;;0.60;;
34144;SDS011;20422;53.014;8.886;2022-08-19T14:02:37;2.10;;;0.52;;
34144;SDS011;20422;53.014;8.886;2022-08-19T14:05:05;4.28;;;1.35;;
34144;SDS011;20422;53.014;8.886;2022-08-19T14:07:34;0.75;;;0.50;;
34144;SDS011;20422;53.014;8.886;2022-08-19T14:10:03;1.90;;;0.90;;
34144;SDS011;20422;53.014;8.886;2022-08-19T14:12:30;1.70;;;0.70;;
34144;SDS011;20422;53.014;8.886;2022-08-19T14:14:57;3.10;;;0.80;;
34144;SDS011;20422;53.014;8.886;2022-08-19T14:17:23;1.33;;;0.60;;
34144;SDS011;20422;53.014;8.886;2022-08-19T14:37:53;1.23;;;0.82;;
34144;SDS011;20422;53.014;8.886;2022-08-19T14:40:19;1.90;;;0.77;;
34144;SDS011;20422;53.014;8.886;2022-08-19T14:43:19;2.20;;;1.48;;
34144;SDS011;20422;53.014;8.886;2022-08-19T14:46:33;1.00;;;0.90;;
34144;SDS011;20422;53.014;8.886;2022-08-19T14:48:59;1.45;;;0.80;;
34144;SDS011;20422;53.014;8.886;2022-08-19T14:51:24;3.13;;;1.10;;
34144;SDS011;20422;53.014;8.886;2022-08-19T15:07:54;4.55;;;1.50;;
34144;SDS011;20422;53.014;8.886;2022-08-19T15:10:21;3.53;;;1.33;;
34144;SDS011;20422;53.014;8.886;2022-08-19T15:12:48;2.45;;;1.25;;
34144;SDS011;20422;53.014;8.886;2022-08-19T15:22:08;11.35;;;1.55;;
34144;SDS011;20422;53.014;8.886;2022-08-19T15:24:34;3.55;;;1.60;;
34144;SDS011;20422;53.014;8.886;2022-08-19T15:41:35;2.33;;;1.45;;
34144;SDS011;20422;53.014;8.886;2022-08-19T15:44:02;1.75;;;1.65;;
34144;SDS011;20422;53.014;8.886;2022-08-19T15:46:34;3.78;;;1.50;;
34144;SDS011;20422;53.014;8.886;2022-08-19T15:49:02;2.50;;;1.10;;
34144;SDS011;20422;53.014;8.886;2022-08-19T15:51:28;1.77;;;1.33;;
34144;SDS011;20422;53.014;8.886;2022-08-19T15:53:55;1.45;;;1.10;;
34144;SDS011;20422;53.014;8.886;2022-08-19T15:56:21;2.47;;;1.60;;
34144;SDS011;20422;53.014;8.886;2022-08-19T15:58:46;4.32;;;1.60;;
34144;SDS011;20422;53.014;8.886;2022-08-19T16:01:30;6.38;;;1.80;;
34144;SDS011;20422;53.014;8.886;2022-08-19T16:04:19;3.67;;;1.48;;
34144;SDS011;20422;53.014;8.886;2022-08-19T16:07:02;2.33;;;1.30;;
34144;SDS011;20422;53.014;8.886;2022-08-19T16:09:29;1.55;;;1.45;;
34144;SDS011;20422;53.014;8.886;2022-08-19T16:11:56;3.58;;;1.50;;
34144;SDS011;20422;53.014;8.886;2022-08-19T16:14:25;2.75;;;1.65;;
34144;SDS011;20422;53.014;8.886;2022-08-19T16:16:51;2.33;;;1.83;;